createdAt,value
2023-03-15T00:00:25.350Z,16.2
2023-03-15T00:02:31.637Z,16.1
2023-03-15T00:04:37.719Z,16.8
2023-03-15T00:08:52.988Z,15
2023-03-15T00:15:11.510Z,13
2023-03-15T00:17:17.697Z,23.7
2023-03-15T00:21:30.095Z,15.5
2023-03-15T00:23:39.174Z,13.1
2023-03-15T00:29:57.713Z,8.6
2023-03-15T00:32:03.932Z,9.3
2023-03-15T00:34:10.114Z,16.1
2023-03-15T00:36:16.267Z,11.4
2023-03-15T00:38:25.383Z,17.5
2023-03-15T00:42:37.758Z,13.3
2023-03-15T00:45:01.624Z,11.6
2023-03-15T00:51:23.109Z,17.1
2023-03-15T00:53:29.275Z,11.3
2023-03-15T00:55:35.479Z,8.9
2023-03-15T00:57:41.646Z,7.5
2023-03-15T00:59:47.829Z,15.4
2023-03-15T01:06:09.302Z,11.4
2023-03-15T01:08:15.518Z,8.8
2023-03-15T01:10:21.676Z,12.9
2023-03-15T01:12:27.881Z,17.8
2023-03-15T01:14:34.064Z,19.1
2023-03-15T01:18:46.406Z,10
2023-03-15T01:20:55.533Z,23.5
2023-03-15T01:23:01.687Z,16
2023-03-15T01:25:07.896Z,17.5
2023-03-15T01:27:14.091Z,22
2023-03-15T01:29:20.295Z,24.3
2023-03-15T01:31:26.502Z,7.2
2023-03-15T01:33:32.654Z,19.3
2023-03-15T01:35:41.817Z,17.9
2023-03-15T01:37:47.914Z,17
2023-03-15T01:40:58.647Z,14.7
2023-03-15T01:43:04.829Z,11
2023-03-15T01:45:11.001Z,11.9
2023-03-15T01:49:26.252Z,18
2023-03-15T01:51:32.436Z,6.3
2023-03-15T01:53:38.617Z,7.4
2023-03-15T01:55:44.809Z,9.7
2023-03-15T01:57:50.991Z,10.1
2023-03-15T01:59:57.229Z,7.8
2023-03-15T02:02:03.389Z,10.4
2023-03-15T02:16:49.603Z,22.3
2023-03-15T02:21:04.780Z,15.6
2023-03-15T02:23:10.951Z,24.5
2023-03-15T02:25:17.110Z,21.1
2023-03-15T02:27:23.382Z,13.1
2023-03-15T02:29:29.451Z,17.7
2023-03-15T02:31:35.611Z,22.9
2023-03-15T02:35:50.917Z,24.4
2023-03-15T02:39:01.548Z,29.7
2023-03-15T02:43:13.889Z,19.5
2023-03-15T02:45:20.095Z,24
2023-03-15T02:55:53.839Z,15.2
2023-03-15T03:00:06.203Z,30.8
2023-03-15T03:06:27.629Z,36.8
2023-03-15T03:08:33.796Z,19.9
2023-03-15T03:12:46.162Z,25.8
2023-03-15T03:14:52.318Z,22.8
2023-03-15T03:21:13.759Z,24.4
2023-03-15T03:23:19.910Z,29
2023-03-15T03:25:26.104Z,24.9
2023-03-15T03:27:32.274Z,35.2
2023-03-15T03:29:38.458Z,32.1
2023-03-15T03:31:47.514Z,28.2
2023-03-15T03:33:53.671Z,28
2023-03-15T03:35:59.929Z,27.6
2023-03-15T03:43:22.893Z,39.7
2023-03-15T03:45:31.945Z,51.6
2023-03-15T03:53:58.202Z,79.9
2023-03-15T03:56:04.334Z,52.5
2023-03-15T04:02:25.784Z,35.9
2023-03-15T04:04:31.913Z,28.6
2023-03-15T04:12:56.614Z,34.8
2023-03-15T04:15:05.662Z,35.8
2023-03-15T04:17:11.849Z,22.3
2023-03-15T04:19:18.036Z,29.9
2023-03-15T04:23:30.374Z,24.3
2023-03-15T04:25:36.536Z,23.7
2023-03-15T04:27:42.678Z,25.6
2023-03-15T04:34:04.102Z,28.4
2023-03-15T04:36:30.117Z,36.9
2023-03-15T04:38:36.254Z,25.8
2023-03-15T04:40:42.474Z,19.9
2023-03-15T04:42:51.576Z,24.3
2023-03-15T04:47:03.912Z,17.8
2023-03-15T04:53:22.355Z,23.7
2023-03-15T04:55:28.508Z,22.8
2023-03-15T04:57:37.586Z,21.7
2023-03-15T04:59:43.769Z,21.9
2023-03-15T05:01:49.955Z,31.7
2023-03-15T05:03:56.103Z,32.4
2023-03-15T05:06:02.825Z,23.3
2023-03-15T05:08:08.436Z,29
2023-03-15T05:10:14.609Z,17.6
2023-03-15T05:12:23.685Z,26.1
2023-03-15T05:29:15.859Z,35.7
2023-03-15T05:31:22.041Z,29.3
2023-03-15T05:32:26.625Z,42.1
2023-03-15T05:34:32.735Z,32.5
2023-03-15T05:36:38.830Z,21.1
2023-03-15T05:38:45.731Z,16.7
2023-03-15T05:40:54.072Z,34.2
2023-03-15T05:43:00.229Z,6.7
2023-03-15T05:45:06.387Z,7.6
2023-03-15T05:47:12.570Z,4.2
2023-03-15T05:51:24.899Z,11.8
2023-03-15T05:53:31.092Z,3.5
2023-03-15T05:55:40.146Z,14.1
2023-03-15T06:01:58.661Z,13.7
2023-03-15T06:04:04.911Z,2
2023-03-15T06:06:10.998Z,4.7
2023-03-15T06:08:17.170Z,20.9
2023-03-15T06:10:26.243Z,11.5
2023-03-15T06:14:38.604Z,11
2023-03-15T06:16:44.849Z,12.3
2023-03-15T06:18:50.905Z,16.7
2023-03-15T06:20:57.063Z,17.4
2023-03-15T06:23:03.212Z,4.5
2023-03-15T06:25:12.283Z,8
2023-03-15T06:27:12.270Z,9.3
2023-03-15T06:29:18.419Z,17.4
2023-03-15T06:30:22.949Z,11.1
2023-03-15T06:34:35.284Z,33.8
2023-03-15T06:36:41.478Z,16.2
2023-03-15T06:38:50.420Z,20.6
2023-03-15T06:40:56.551Z,30.7
2023-03-15T06:43:02.696Z,10.7
2023-03-15T06:45:08.832Z,14
2023-03-15T06:47:15.003Z,12.2
2023-03-15T06:51:27.278Z,26.8
2023-03-15T06:55:42.478Z,30.3
2023-03-15T06:59:54.751Z,24.7
2023-03-15T07:04:08.395Z,18.2
2023-03-15T07:06:13.197Z,23.2
2023-03-15T07:08:22.268Z,31
2023-03-15T07:10:28.435Z,18.5
2023-03-15T07:12:34.561Z,27.7
2023-03-15T07:14:40.730Z,30.6
2023-03-15T07:16:46.893Z,21.1
2023-03-15T07:18:53.070Z,24.9
2023-03-15T07:20:59.204Z,33.7
2023-03-15T07:23:08.294Z,23.7
2023-03-15T07:25:14.457Z,25.8
2023-03-15T07:32:37.629Z,23.1
2023-03-15T07:36:52.778Z,29.3
2023-03-15T07:38:58.956Z,31.7
2023-03-15T07:41:05.148Z,19.6
2023-03-15T07:43:11.328Z,25.2
2023-03-15T07:45:17.518Z,19.6
2023-03-15T07:47:23.828Z,22.2
2023-03-15T07:49:29.914Z,18.4
2023-03-15T07:53:45.236Z,8.8
2023-03-15T08:06:25.459Z,9.8
2023-03-15T08:08:31.718Z,4.2
2023-03-15T08:10:37.969Z,7.3
2023-03-15T08:12:44.205Z,4.2
2023-03-15T08:14:50.457Z,7
2023-03-15T08:16:56.608Z,3.7
2023-03-15T08:19:02.840Z,3.1
2023-03-15T08:21:12.032Z,31.7
2023-03-15T08:23:18.177Z,9.3
2023-03-15T08:25:24.359Z,6.8
2023-03-15T08:27:49.969Z,10.3
2023-03-15T08:29:56.085Z,3.5
2023-03-15T08:32:02.259Z,3.2
2023-03-15T08:34:11.244Z,15
2023-03-15T08:36:17.446Z,5.8
2023-03-15T08:38:23.577Z,2.7
2023-03-15T08:42:36.017Z,5
2023-03-15T08:48:57.328Z,2.4
2023-03-15T08:51:03.553Z,4.1
2023-03-15T09:01:34.525Z,10.7
2023-03-15T09:03:43.548Z,6
2023-03-15T09:05:49.778Z,5.2
2023-03-15T09:07:55.946Z,5.6
2023-03-15T09:10:04.910Z,9.2
2023-03-15T09:12:08.386Z,1.2
2023-03-15T09:14:14.579Z,8.1
2023-03-15T09:16:20.873Z,6.6
2023-03-15T09:20:36.024Z,16.3
2023-03-15T09:25:52.997Z,2.4
2023-03-15T09:27:59.222Z,2.8
2023-03-15T09:30:05.458Z,13.9
2023-03-15T09:32:14.496Z,3.2
2023-03-15T09:36:26.954Z,5.3
2023-03-15T09:38:33.193Z,10.8
2023-03-15T09:40:39.439Z,6.4
2023-03-15T09:42:45.629Z,7.4
2023-03-15T09:47:00.925Z,2
2023-03-15T09:49:07.180Z,9.2
2023-03-15T09:51:13.401Z,25.5
2023-03-15T09:57:33.704Z,7.6
2023-03-15T10:08:07.700Z,10.5
2023-03-15T10:10:13.938Z,12.1
2023-03-15T10:14:26.436Z,8.5
2023-03-15T10:16:35.497Z,2.4
2023-03-15T10:20:48.011Z,7.1
2023-03-15T10:21:52.518Z,10.5
2023-03-15T10:23:58.829Z,10.8
2023-03-15T10:26:05.067Z,10.9
2023-03-15T10:28:12.668Z,6.3
2023-03-15T10:34:32.908Z,4.8
2023-03-15T10:36:39.183Z,6.2
2023-03-15T10:40:51.704Z,6.1
2023-03-15T10:42:57.940Z,6.8
2023-03-15T10:47:23.122Z,2.9
2023-03-15T10:51:25.829Z,3.5
2023-03-15T10:53:32.879Z,12.5
2023-03-15T10:55:38.352Z,4.2
2023-03-15T10:57:44.654Z,4.9
2023-03-15T10:59:53.723Z,8.6
2023-03-15T11:02:00.045Z,7.4
2023-03-15T11:04:06.265Z,12.1
2023-03-15T11:06:12.538Z,2.9
2023-03-15T11:08:18.796Z,6.7
2023-03-15T11:10:25.096Z,9.5
2023-03-15T11:12:31.360Z,6.6
2023-03-15T11:14:40.486Z,4.8
2023-03-15T11:16:46.723Z,4.1
2023-03-15T11:18:52.996Z,3.7
2023-03-15T11:19:57.556Z,4.9
2023-03-15T11:22:03.836Z,5.8
2023-03-15T11:28:25.517Z,6.9
2023-03-15T11:32:38.040Z,16.2
2023-03-15T11:34:44.342Z,4.6
2023-03-15T11:37:01.870Z,2.1
2023-03-15T11:38:56.894Z,3.8
2023-03-15T11:41:03.181Z,7.1
2023-03-15T11:43:12.285Z,5.4
2023-03-15T11:45:18.596Z,7.7
2023-03-15T11:49:31.123Z,8.4
2023-03-15T11:51:37.421Z,1.1
2023-03-15T11:53:43.682Z,5.9
2023-03-15T11:55:49.975Z,2.8
2023-03-15T12:00:05.421Z,10.2
2023-03-15T12:02:11.749Z,11.8
2023-03-15T12:04:17.908Z,4.6
2023-03-15T12:06:24.201Z,3.4
2023-03-15T12:12:45.906Z,5
2023-03-15T12:16:58.509Z,11.4
2023-03-15T12:19:23.769Z,4.1
2023-03-15T12:23:36.346Z,7.7
2023-03-15T12:29:58.062Z,6.7
2023-03-15T12:34:10.636Z,3.2
2023-03-15T12:36:16.942Z,9.5
2023-03-15T12:38:23.243Z,3.6
2023-03-15T12:40:32.342Z,5.7
2023-03-15T12:42:38.639Z,3.8
2023-03-15T12:46:51.224Z,5
2023-03-15T12:48:57.516Z,7.6
2023-03-15T12:51:03.862Z,3.1
2023-03-15T12:55:19.219Z,7.4
2023-03-15T12:57:25.504Z,7.4
2023-03-15T12:59:31.804Z,3.5
2023-03-15T13:01:38.185Z,1.3
2023-03-15T13:03:44.404Z,5.3
2023-03-15T13:10:06.068Z,4.8
2023-03-15T13:12:12.390Z,1.8
2023-03-15T13:14:18.699Z,7.8
2023-03-15T13:15:23.204Z,5.1
2023-03-15T13:17:29.496Z,1.5
2023-03-15T13:19:35.764Z,3.6
2023-03-15T13:23:51.160Z,17.4
2023-03-15T13:25:57.455Z,9.1
2023-03-15T13:28:03.731Z,5.7
2023-03-15T13:32:16.323Z,10.7
2023-03-15T13:34:22.594Z,13.8
2023-03-15T13:36:28.883Z,7.6
2023-03-15T13:40:44.257Z,8.9
2023-03-15T13:42:50.567Z,12.7
2023-03-15T13:44:56.852Z,18.2
2023-03-15T13:47:03.144Z,5.3
2023-03-15T13:49:09.435Z,6.3
2023-03-15T13:51:15.835Z,6.3
2023-03-15T13:53:35.621Z,17.3
2023-03-15T13:55:31.089Z,3.5
2023-03-15T13:57:37.364Z,5.5
2023-03-15T13:59:43.665Z,3.1
2023-03-15T14:01:50.065Z,2.6
2023-03-15T14:03:56.238Z,1
2023-03-15T14:06:02.503Z,4
2023-03-15T14:15:34.989Z,1.9
2023-03-15T14:19:47.556Z,1.9
2023-03-15T14:21:56.646Z,4.3
2023-03-15T14:24:03.548Z,3.5
2023-03-15T14:26:09.221Z,5
2023-03-15T14:32:28.217Z,4.4
2023-03-15T14:34:34.341Z,1.2
2023-03-15T14:36:43.446Z,10.6
2023-03-15T14:40:55.969Z,7.2
2023-03-15T14:45:08.549Z,1.9
2023-03-15T14:47:14.827Z,9.6
2023-03-15T14:49:21.116Z,3.2
2023-03-15T14:51:30.233Z,9.5
2023-03-15T14:53:36.482Z,4.4
2023-03-15T14:55:42.776Z,3.7
2023-03-15T14:57:49.055Z,14.1
2023-03-15T14:59:55.335Z,2.9
2023-03-15T15:02:01.675Z,8.7
2023-03-15T15:04:07.900Z,3.5
2023-03-15T15:06:16.982Z,4.4
2023-03-15T15:08:23.299Z,16.2
2023-03-15T15:10:29.564Z,5.9
2023-03-15T15:11:34.104Z,11.7
2023-03-15T15:15:55.041Z,4.3
2023-03-15T15:17:53.531Z,5.2
2023-03-15T15:24:14.673Z,4.3
2023-03-15T15:30:33.512Z,21.9
2023-03-15T15:34:48.922Z,6.9
2023-03-15T15:36:55.178Z,5.1
2023-03-15T15:39:01.460Z,11.5
2023-03-15T15:41:07.769Z,9.4
2023-03-15T15:43:14.041Z,10
2023-03-15T15:49:35.821Z,11
2023-03-15T15:51:42.043Z,7
2023-03-15T15:58:00.832Z,4.1
2023-03-15T16:00:07.354Z,5.9
2023-03-15T16:02:15.227Z,4.1
2023-03-15T16:04:26.876Z,17.2
2023-03-15T16:06:30.330Z,4.9
2023-03-15T16:08:36.580Z,5.3
2023-03-15T16:11:02.401Z,4
2023-03-15T16:13:08.670Z,19.7
2023-03-15T16:15:14.944Z,3.6
2023-03-15T16:17:24.041Z,13.9
2023-03-15T16:23:42.832Z,6.4
2023-03-15T16:25:49.117Z,7.9
2023-03-15T16:27:55.366Z,5.1
2023-03-15T16:32:19.067Z,7.3
2023-03-15T16:34:16.992Z,3.6
2023-03-15T16:36:23.229Z,8.9
2023-03-15T16:38:29.489Z,13.5
2023-03-15T16:40:35.771Z,8.9
2023-03-15T16:49:03.656Z,7.7
2023-03-15T16:53:16.152Z,6.4
2023-03-15T16:55:22.389Z,7.3
2023-03-15T16:57:28.627Z,9.8
2023-03-15T16:59:34.912Z,9.4
2023-03-15T17:01:43.967Z,12.7
2023-03-15T17:03:50.196Z,8.5
2023-03-15T17:05:56.428Z,6.3
2023-03-15T17:11:13.468Z,5.1
2023-03-15T17:15:28.770Z,6.4
2023-03-15T17:17:35.008Z,4.7
2023-03-15T17:21:47.498Z,5.8
2023-03-15T17:23:53.763Z,5.5
2023-03-15T17:25:59.998Z,3.6
2023-03-15T17:28:06.233Z,8.7
2023-03-15T17:30:15.252Z,6.1
2023-03-15T17:32:21.540Z,6.2
2023-03-15T17:34:27.747Z,3.8
2023-03-15T17:36:33.974Z,6.3
2023-03-15T17:38:40.191Z,7
2023-03-15T17:40:46.541Z,13.2
2023-03-15T17:42:52.625Z,9.5
2023-03-15T17:47:09.518Z,36.1
2023-03-15T17:49:14.054Z,9
2023-03-15T17:53:26.508Z,9.5
2023-03-15T17:55:32.914Z,6
2023-03-15T18:01:54.109Z,11.2
2023-03-15T18:04:00.362Z,6.1
2023-03-15T18:05:04.802Z,9.5
2023-03-15T18:07:11.039Z,20.4
2023-03-15T18:11:23.394Z,7
2023-03-15T18:13:32.404Z,9.7
2023-03-15T18:17:44.776Z,7
2023-03-15T18:21:57.286Z,15.7
2023-03-15T18:26:09.764Z,10.4
2023-03-15T18:28:18.813Z,6.5
2023-03-15T18:30:25.102Z,9
2023-03-15T18:32:31.459Z,4.2
2023-03-15T18:34:37.685Z,10.2
2023-03-15T18:36:43.992Z,18.5
2023-03-15T18:38:50.259Z,6.6
2023-03-15T18:40:56.554Z,10.6
2023-03-15T18:45:11.904Z,13.1
2023-03-15T18:49:24.461Z,102.6
2023-03-15T18:53:37.026Z,26.5
2023-03-15T18:55:43.184Z,19
2023-03-15T18:57:52.367Z,21.1
2023-03-15T18:59:58.635Z,19.2
2023-03-15T19:02:05.010Z,14
2023-03-15T19:03:09.467Z,5.9
2023-03-15T19:09:28.275Z,22.2
2023-03-15T19:11:37.457Z,42.4
2023-03-15T19:17:56.256Z,16.6
2023-03-15T19:20:02.596Z,21
2023-03-15T19:22:08.806Z,10.7
2023-03-15T19:24:15.078Z,17.1
2023-03-15T19:26:24.226Z,12.3
2023-03-15T19:30:36.795Z,13.4
2023-03-15T19:32:43.118Z,10.1
2023-03-15T19:34:49.330Z,13.8
2023-03-15T19:36:55.560Z,21.8
2023-03-15T19:39:01.844Z,12.3
2023-03-15T19:41:12.839Z,21.4
2023-03-15T19:43:17.270Z,16.1
2023-03-15T19:45:23.551Z,20.6
2023-03-15T19:47:29.810Z,11.2
2023-03-15T19:49:36.042Z,21.5
2023-03-15T19:51:42.332Z,15.1
2023-03-15T19:53:48.559Z,15.5
2023-03-15T19:55:57.753Z,11
2023-03-15T19:58:04.034Z,13.6
2023-03-15T20:02:34.404Z,18.4
2023-03-15T20:06:46.927Z,19.8
2023-03-15T20:13:08.597Z,14.6
2023-03-15T20:21:33.598Z,20.1
2023-03-15T20:23:42.750Z,20.8
2023-03-15T20:25:49.080Z,17.7
2023-03-15T20:27:55.227Z,9.1
2023-03-15T20:30:01.546Z,14.5
2023-03-15T20:32:07.718Z,24.2
2023-03-15T20:34:13.994Z,20.9
2023-03-15T20:36:20.242Z,44
2023-03-15T20:38:29.377Z,45.3
2023-03-15T20:40:35.629Z,16.5
2023-03-15T20:49:00.624Z,24.9
2023-03-15T20:51:06.881Z,21.3
2023-03-15T20:57:28.445Z,60.5
2023-03-15T20:58:33.024Z,79.5
2023-03-15T21:00:39.345Z,67.7
2023-03-15T21:02:45.497Z,28.6
2023-03-15T21:04:51.731Z,19.3
2023-03-15T21:09:07.099Z,14.5
2023-03-15T21:11:13.380Z,9.3
2023-03-15T21:15:25.841Z,9.3
2023-03-15T21:19:38.295Z,9.4
2023-03-15T21:21:47.428Z,13.2
2023-03-15T21:23:53.672Z,14.8
2023-03-15T21:25:59.915Z,6.2
2023-03-15T21:28:06.136Z,14
2023-03-15T21:30:12.411Z,11.8
2023-03-15T21:32:18.649Z,27.2
2023-03-15T21:34:24.856Z,15.1
2023-03-15T21:36:34.013Z,8.8
2023-03-15T21:38:40.234Z,19.5
2023-03-15T21:40:46.474Z,15.8
2023-03-15T21:42:52.720Z,17.8
2023-03-15T21:47:05.185Z,13.2
2023-03-15T21:51:20.561Z,17
2023-03-15T21:53:26.801Z,11.3
2023-03-15T21:55:33.061Z,68.9
2023-03-15T21:56:37.571Z,161
2023-03-15T21:58:43.929Z,142.2
2023-03-15T22:02:56.259Z,71.5
2023-03-15T22:07:13.166Z,24.5
2023-03-15T22:09:19.389Z,18.3
2023-03-15T22:11:25.610Z,9.6
2023-03-15T22:13:31.827Z,26.3
2023-03-15T22:15:38.074Z,14.1
2023-03-15T22:17:44.265Z,32.7
2023-03-15T22:21:59.622Z,32
2023-03-15T22:26:12.054Z,26.6
2023-03-15T22:28:18.283Z,16.3
2023-03-15T22:30:24.767Z,9.3
2023-03-15T22:34:39.858Z,25.7
2023-03-15T22:36:46.047Z,20.5
2023-03-15T22:38:52.294Z,9.9
2023-03-15T22:40:58.539Z,11.5
2023-03-15T22:43:04.721Z,15.1
2023-03-15T22:45:10.962Z,12.1
2023-03-15T22:47:17.164Z,6.7
2023-03-15T22:49:26.324Z,11.1
2023-03-15T22:51:32.509Z,13
2023-03-15T22:54:43.302Z,10.1
2023-03-15T22:56:49.525Z,11.5
2023-03-15T22:58:55.775Z,13
2023-03-15T23:07:23.568Z,5.8
2023-03-15T23:09:29.778Z,11.5
2023-03-15T23:11:36.033Z,9.8
2023-03-15T23:15:48.510Z,10.6
2023-03-15T23:17:57.619Z,10.4
2023-03-15T23:20:03.826Z,14.7
2023-03-15T23:22:10.095Z,13.3
2023-03-15T23:24:16.294Z,8
2023-03-15T23:26:22.546Z,10.2
2023-03-15T23:28:28.766Z,13.2
2023-03-15T23:30:36.174Z,10.1
2023-03-15T23:39:02.882Z,22.8
2023-03-15T23:41:09.111Z,13.8
2023-03-15T23:43:15.342Z,6
2023-03-15T23:45:21.598Z,16.5
2023-03-15T23:49:36.973Z,6.8
2023-03-15T23:51:43.236Z,7.7
2023-03-15T23:54:03.294Z,12
2023-03-15T23:56:09.521Z,8.3
2023-03-15T23:58:15.756Z,14.4
